Time;durP1;ratioP1;P1;durP2;ratioP2;P2;SDS_P1;SDS_P2;PMS_P1;PMS_P2;Temp;Humidity;BMP_temperature;BMP_pressure;BME280_temperature;BME280_humidity;BME280_pressure;Samples;Min_cycle;Max_cycle;Signal;HPM_P1;HPM_P2
2022/06/17 00:01:51;;;;;;;;;;;;;;;;;;12729678;28;20390;-84
2022/06/17 00:07:53;;;;;;;;;;;;;;;;;;12729268;28;19915;-84
2022/06/17 00:13:54;;;;;;;;;;;;;;;;;;12785544;27;19916;-81
2022/06/17 00:19:56;;;;;;;;;;;;;;;;;;12730329;28;19919;-81
2022/06/17 00:25:57;;;;;;;;;;;;;;;;;;12750432;28;19911;-81
2022/06/17 00:31:59;;;;;;;;;;;;;;;;;;12713774;28;19915;-84
2022/06/17 00:38:00;;;;;;;;;;;;;;;;;;12663540;28;19924;-84
2022/06/17 00:44:02;;;;;;;;;;;;;;;;;;12695120;28;19911;-83
2022/06/17 00:50:03;;;;;;;;;;;;;;;;;;12695250;28;19919;-84
2022/06/17 00:56:08;;;;;;;;;;;;;;;;;;12677640;28;19920;-83
2022/06/17 01:02:09;;;;;;;;;;;;;;;;;;12684244;28;19946;-84
2022/06/17 01:08:14;;;;;;;;;;;;;;;;;;12685827;28;19915;-84
2022/06/17 01:14:15;;;;;;;;;;;;;;;;;;12668714;28;19912;-84
2022/06/17 01:20:17;;;;;;;;;;;;;;;;;;12684594;28;19926;-84
2022/06/17 01:26:18;;;;;;;;;;;;;;;;;;12684610;28;19927;-84
2022/06/17 01:32:20;;;;;;;;;;;;;;;;;;12702970;27;19912;-84
2022/06/17 01:38:22;;;;;;;;;;;;;;;;;;12718568;27;19927;-80
2022/06/17 01:44:25;;;;;;;;;;;;;;;;;;12734702;27;19912;-81
2022/06/17 01:50:27;;;;;;;;;;;;;;;;;;12752442;27;19911;-80
2022/06/17 01:56:30;;;;;;;;;;;;;;;;;;12734193;27;19930;-81
2022/06/17 02:02:33;;;;;;;;;;;;;;;;;;12733240;27;19926;-79
2022/06/17 02:08:35;;;;;;;;;;;;;;;;;;12732878;27;19912;-81
2022/06/17 02:14:36;;;;;;;;;;;;;;;;;;12733011;27;19911;-80
2022/06/17 02:21:04;;;;;;;;;;;;;;;;;;12718886;27;19927;-80
2022/06/17 02:27:05;;;;;;;;;;;;;;;;;;12732580;27;20402;-84
2022/06/17 02:33:07;;;;;;;;;;;;;;;;;;12715458;27;19923;-83
2022/06/17 02:39:09;;;;;;;;;;;;;;;;;;12732178;27;19923;-80
2022/06/17 02:45:11;;;;;;;;;;;;;;;;;;12750575;27;19912;-84
2022/06/17 02:51:13;;;;;;;;;;;;;;;;;;12731802;27;20394;-81
2022/06/17 02:57:14;;;;;;;;;;;;;;;;;;12714185;27;19927;-80
2022/06/17 03:03:16;;;;;;;;;;;;;;;;;;12730568;27;19922;-81
2022/06/17 03:09:17;;;;;;;;;;;;;;;;;;12749175;27;19911;-81
2022/06/17 03:15:20;;;;;;;;;;;;;;;;;;12729882;27;19935;-81
2022/06/17 03:21:23;;;;;;;;;;;;;;;;;;12712885;27;19912;-81
2022/06/17 03:27:25;;;;;;;;;;;;;;;;;;12730078;27;19918;-81
2022/06/17 03:33:26;;;;;;;;;;;;;;;;;;12712489;27;20399;-84
2022/06/17 03:39:29;;;;;;;;;;;;;;;;;;12712653;27;20303;-84
2022/06/17 03:45:30;;;;;;;;;;;;;;;;;;12747761;27;19912;-81
2022/06/17 03:51:32;;;;;;;;;;;;;;;;;;12729378;28;19911;-81
2022/06/17 03:57:35;;;;;;;;;;;;;;;;;;12712371;28;19920;-81
2022/06/17 04:03:37;;;;;;;;;;;;;;;;;;12728682;28;19923;-80
2022/06/17 04:09:39;;;;;;;;;;;;;;;;;;12728680;28;19916;-80
2022/06/17 04:15:41;;;;;;;;;;;;;;;;;;12729205;28;19919;-81
2022/06/17 04:21:43;;;;;;;;;;;;;;;;;;12789090;27;19915;-84
2022/06/17 04:27:57;;;;;;;;;;;;;;;;;;12712203;28;19912;-84
2022/06/17 04:33:59;;;;;;;;;;;;;;;;;;12749984;27;19934;-84
2022/06/17 04:40:01;;;;;;;;;;;;;;;;;;12738762;27;19920;-85
2022/06/17 04:46:07;;;;;;;;;;;;;;;;;;12737925;27;20264;-83
2022/06/17 04:52:09;;;;;;;;;;;;;;;;;;12738172;27;19922;-83
2022/06/17 04:58:11;;;;;;;;;;;;;;;;;;12721122;27;19927;-85
2022/06/17 05:04:12;;;;;;;;;;;;;;;;;;12724625;27;19923;-84
2022/06/17 05:10:22;;;;;;;;;;;;;;;;;;12742686;27;20367;-84
2022/06/17 05:16:23;;;;;;;;;;;;;;;;;;12736436;27;20184;-83
2022/06/17 05:22:26;;;;;;;;;;;;;;;;;;12738034;27;19911;-82
2022/06/17 05:28:28;;;;;;;;;;;;;;;;;;12720958;27;19911;-83
2022/06/17 05:34:34;;;;;;;;;;;;;;;;;;12718306;27;19923;-85
2022/06/17 05:40:36;;;;;;;;;;;;;;;;;;12733417;27;19923;-81
2022/06/17 05:46:38;;;;;;;;;;;;;;;;;;12729795;27;19912;-82
2022/06/17 05:52:46;;;;;;;;;;;;;;;;;;12713247;27;19912;-82
2022/06/17 05:59:10;;;;;;;;;;;;;;;;;;12734600;27;19919;-82
2022/06/17 06:05:11;;;;;;;;;;;;;;;;;;12731537;27;19916;-81
2022/06/17 06:11:14;;;;;;;;;;;;;;;;;;12732106;27;19912;-82
2022/06/17 06:17:18;;;;;;;;;;;;;;;;;;12731008;27;19965;-81
2022/06/17 06:23:20;;;;;;;;;;;;;;;;;;12704245;27;19916;-81
2022/06/17 06:29:21;;;;;;;;;;;;;;;;;;12696094;27;19919;-80
2022/06/17 06:35:23;;;;;;;;;;;;;;;;;;12712900;27;19930;-81
2022/06/17 06:41:26;;;;;;;;;;;;;;;;;;12729440;27;20994;-81
2022/06/17 06:47:27;;;;;;;;;;;;;;;;;;12729509;27;19918;-80
2022/06/17 06:53:34;;;;;;;;;;;;;;;;;;12712653;27;19911;-79
2022/06/17 06:59:35;;;;;;;;;;;;;;;;;;12742228;27;19927;-79
2022/06/17 07:05:37;;;;;;;;;;;;;;;;;;12726346;27;20307;-80
2022/06/17 07:11:38;;;;;;;;;;;;;;;;;;12728524;27;19912;-80
2022/06/17 07:17:40;;;;;;;;;;;;;;;;;;12739981;27;20294;-82
2022/06/17 07:23:41;;;;;;;;;;;;;;;;;;12726660;27;19919;-81
2022/06/17 07:29:43;;;;;;;;;;;;;;;;;;12708055;27;19912;-81
2022/06/17 07:35:44;;;;;;;;;;;;;;;;;;12745791;27;19977;-81
2022/06/17 07:41:50;;;;;;;;;;;;;;;;;;12746355;27;19911;-81
2022/06/17 07:47:51;;;;;;;;;;;;;;;;;;12746428;27;19919;-84
2022/06/17 07:53:53;;;;;;;;;;;;;;;;;;12745350;28;19912;-85
2022/06/17 07:59:54;;;;;;;;;;;;;;;;;;12711000;28;20371;-85
2022/06/17 08:05:58;;;;;;;;;;;;;;;;;;12726111;28;19923;-83
2022/06/17 08:12:00;;;;;;;;;;;;;;;;;;12735678;27;19926;-82
2022/06/17 08:18:01;;;;;;;;;;;;;;;;;;12738493;27;20371;-83
2022/06/17 08:24:03;;;;;;;;;;;;;;;;;;12737865;27;19912;-79
2022/06/17 08:30:05;;;;;;;;;;;;;;;;;;12720165;27;19911;-82
2022/06/17 08:36:06;;;;;;;;;;;;;;;;;;12739704;27;20372;-81
2022/06/17 08:42:08;;;;;;;;;;;;;;;;;;12750020;27;20311;-85
2022/06/17 08:48:09;;;;;;;;;;;;;;;;;;12756525;27;19931;-86
2022/06/17 08:54:11;;;;;;;;;;;;;;;;;;12704030;27;19911;-86
2022/06/17 09:00:12;;;;;;;;;;;;;;;;;;12723009;27;19920;-87
2022/06/17 09:06:15;;;;;;;;;;;;;;;;;;12727438;27;19923;-87
2022/06/17 09:12:16;;;;;;;;;;;;;;;;;;12719094;27;19919;-83
2022/06/17 09:18:18;;;;;;;;;;;;;;;;;;12753131;27;19927;-82
2022/06/17 09:24:20;;;;;;;;;;;;;;;;;;12735598;27;19915;-80
2022/06/17 09:30:21;;;;;;;;;;;;;;;;;;12775142;27;19934;-81
2022/06/17 09:36:23;;;;;;;;;;;;;;;;;;12766953;27;19923;-81
2022/06/17 09:42:24;;;;;;;;;;;;;;;;;;12758194;27;19912;-82
2022/06/17 09:48:26;;;;;;;;;;;;;;;;;;12733908;27;19912;-84
2022/06/17 09:54:27;;;;;;;;;;;;;;;;;;12734109;27;19912;-83
2022/06/17 10:00:29;;;;;;;;;;;;;;;;;;12733290;27;19920;-82
2022/06/17 10:06:30;;;;;;;;;;;;;;;;;;12716268;27;19922;-83
2022/06/17 10:12:32;;;;;;;;;;;;;;;;;;12716332;27;19912;-82
2022/06/17 10:18:33;;;;;;;;;;;;;;;;;;12732428;27;19919;-82
2022/06/17 10:24:35;;;;;;;;;;;;;;;;;;12750421;27;19911;-83
2022/06/17 10:30:37;;;;;;;;;;;;;;;;;;12705193;27;19915;-83
2022/06/17 10:36:38;;;;;;;;;;;;;;;;;;12733871;27;20384;-83
2022/06/17 10:42:40;;;;;;;;;;;;;;;;;;12724881;27;20288;-83
2022/06/17 10:48:41;;;;;;;;;;;;;;;;;;12725826;27;19911;-82
2022/06/17 10:54:43;;;;;;;;;;;;;;;;;;12729146;27;19912;-83
2022/06/17 11:00:44;;;;;;;;;;;;;;;;;;12729445;27;19919;-79
2022/06/17 11:07:06;;;;;;;;;;;;;;;;;;12732692;27;19924;-79
2022/06/17 11:13:07;;;;;;;;;;;;;;;;;;12741900;27;20287;-79
2022/06/17 11:19:09;;;;;;;;;;;;;;;;;;12740433;27;19926;-79
2022/06/17 11:25:10;;;;;;;;;;;;;;;;;;12726775;27;19919;-80
2022/06/17 11:31:12;;;;;;;;;;;;;;;;;;12713226;27;19911;-79
2022/06/17 11:37:13;;;;;;;;;;;;;;;;;;12745008;27;20295;-80
2022/06/17 11:43:16;;;;;;;;;;;;;;;;;;12739533;27;19934;-79
2022/06/17 11:49:19;;;;;;;;;;;;;;;;;;12741216;27;19911;-79
2022/06/17 11:55:21;;;;;;;;;;;;;;;;;;12740973;28;19912;-79
2022/06/17 12:01:23;;;;;;;;;;;;;;;;;;12727109;28;19919;-79
2022/06/17 12:07:24;;;;;;;;;;;;;;;;;;12727352;28;19916;-79
2022/06/17 12:13:26;;;;;;;;;;;;;;;;;;12709703;28;19918;-79
2022/06/17 12:19:27;;;;;;;;;;;;;;;;;;12745451;28;19919;-79
2022/06/17 12:25:29;;;;;;;;;;;;;;;;;;12756343;28;19920;-77
2022/06/17 12:31:31;;;;;;;;;;;;;;;;;;12732218;28;19920;-79
2022/06/17 12:37:32;;;;;;;;;;;;;;;;;;12707402;28;20166;-79
2022/06/17 12:43:34;;;;;;;;;;;;;;;;;;12746179;28;19911;-79
2022/06/17 12:55:56;;;;;;;;;;;;;;;;;;12766523;27;19918;-80
2022/06/17 13:01:57;;;;;;;;;;;;;;;;;;12735805;27;20287;-79
2022/06/17 13:07:59;;;;;;;;;;;;;;;;;;12754951;27;19922;-80
2022/06/17 13:14:00;;;;;;;;;;;;;;;;;;12753233;27;20370;-80
2022/06/17 13:20:02;;;;;;;;;;;;;;;;;;12753035;27;19919;-80
2022/06/17 13:26:03;;;;;;;;;;;;;;;;;;12717284;27;19918;-79
2022/06/17 13:32:04;;;;;;;;;;;;;;;;;;12734073;27;19911;-79
2022/06/17 13:38:06;;;;;;;;;;;;;;;;;;12733356;27;19923;-78
2022/06/17 13:44:08;;;;;;;;;;;;;;;;;;12751606;27;19911;-79
2022/06/17 13:50:09;;;;;;;;;;;;;;;;;;12751068;27;20338;-80
2022/06/17 13:56:11;;;;;;;;;;;;;;;;;;12732531;27;19919;-80
2022/06/17 14:02:12;;;;;;;;;;;;;;;;;;12732569;27;19911;-80
2022/06/17 14:08:14;;;;;;;;;;;;;;;;;;12731938;27;19915;-80
2022/06/17 14:14:15;;;;;;;;;;;;;;;;;;12714816;27;19912;-79
2022/06/17 14:20:18;;;;;;;;;;;;;;;;;;12731481;27;19926;-79
2022/06/17 14:26:19;;;;;;;;;;;;;;;;;;12731333;27;19927;-79
2022/06/17 14:32:21;;;;;;;;;;;;;;;;;;12749232;27;19931;-80
2022/06/17 14:38:22;;;;;;;;;;;;;;;;;;12713554;27;19957;-80
2022/06/17 14:44:23;;;;;;;;;;;;;;;;;;12730203;27;19912;-79
2022/06/17 14:50:25;;;;;;;;;;;;;;;;;;12713571;27;19912;-81
2022/06/17 14:56:28;;;;;;;;;;;;;;;;;;12712889;27;20390;-80
2022/06/17 15:02:29;;;;;;;;;;;;;;;;;;12748224;27;19917;-80
2022/06/17 15:08:30;;;;;;;;;;;;;;;;;;12748191;27;20363;-80
2022/06/17 15:14:32;;;;;;;;;;;;;;;;;;12729342;27;20287;-80
2022/06/17 15:20:34;;;;;;;;;;;;;;;;;;12746929;27;19919;-81
2022/06/17 15:26:35;;;;;;;;;;;;;;;;;;12729002;27;19919;-80
2022/06/17 15:32:37;;;;;;;;;;;;;;;;;;12747282;27;19915;-81
2022/06/17 15:38:38;;;;;;;;;;;;;;;;;;12728930;27;19920;-80
2022/06/17 15:44:42;;;;;;;;;;;;;;;;;;12728340;27;22090;-80
2022/06/17 15:50:43;;;;;;;;;;;;;;;;;;12747029;27;19919;-81
2022/06/17 15:56:45;;;;;;;;;;;;;;;;;;12712297;28;19919;-80
2022/06/17 16:02:46;;;;;;;;;;;;;;;;;;12728182;27;19918;-81
2022/06/17 16:08:47;;;;;;;;;;;;;;;;;;12746598;28;19915;-81
2022/06/17 16:14:49;;;;;;;;;;;;;;;;;;12731450;28;20461;-79
2022/06/17 16:20:50;;;;;;;;;;;;;;;;;;12760012;28;19919;-81
2022/06/17 16:26:52;;;;;;;;;;;;;;;;;;12711053;28;19918;-81
2022/06/17 16:32:53;;;;;;;;;;;;;;;;;;12754856;27;19922;-81
2022/06/17 16:38:55;;;;;;;;;;;;;;;;;;12737438;27;19923;-81
2022/06/17 16:44:56;;;;;;;;;;;;;;;;;;12737538;27;19918;-81
2022/06/17 16:50:58;;;;;;;;;;;;;;;;;;12737907;27;19912;-80
2022/06/17 16:56:59;;;;;;;;;;;;;;;;;;12737195;27;20422;-81
2022/06/17 17:03:01;;;;;;;;;;;;;;;;;;12737202;27;19919;-81
2022/06/17 17:09:02;;;;;;;;;;;;;;;;;;12756576;27;19915;-81
2022/06/17 17:15:04;;;;;;;;;;;;;;;;;;12759433;27;19912;-81
2022/06/17 17:21:06;;;;;;;;;;;;;;;;;;12766335;27;20307;-81
2022/06/17 17:27:08;;;;;;;;;;;;;;;;;;12749257;27;19911;-81
2022/06/17 17:33:10;;;;;;;;;;;;;;;;;;12748360;27;19953;-81
2022/06/17 17:39:11;;;;;;;;;;;;;;;;;;12728882;27;19924;-79
2022/06/17 17:45:13;;;;;;;;;;;;;;;;;;12755779;27;19919;-80
2022/06/17 17:51:14;;;;;;;;;;;;;;;;;;12718317;27;19912;-80
2022/06/17 17:57:15;;;;;;;;;;;;;;;;;;12736406;27;19926;-80
2022/06/17 18:03:17;;;;;;;;;;;;;;;;;;12753124;27;19911;-81
2022/06/17 18:09:18;;;;;;;;;;;;;;;;;;12734351;27;19916;-80
2022/06/17 18:15:20;;;;;;;;;;;;;;;;;;12752960;27;20292;-80
2022/06/17 18:21:22;;;;;;;;;;;;;;;;;;12732903;27;19919;-80
2022/06/17 18:27:24;;;;;;;;;;;;;;;;;;12718904;27;19911;-80
2022/06/17 18:33:25;;;;;;;;;;;;;;;;;;12756764;27;19927;-81
2022/06/17 18:39:27;;;;;;;;;;;;;;;;;;12739260;27;19931;-79
2022/06/17 18:45:29;;;;;;;;;;;;;;;;;;12741521;27;19911;-80
2022/06/17 18:51:31;;;;;;;;;;;;;;;;;;12740553;27;19911;-81
2022/06/17 18:57:32;;;;;;;;;;;;;;;;;;12758439;27;19930;-80
2022/06/17 19:03:33;;;;;;;;;;;;;;;;;;12724388;27;20248;-81
2022/06/17 19:22:16;;;;;;;;;;;;;;;;;;12757691;27;19919;-81
2022/06/17 19:28:18;;;;;;;;;;;;;;;;;;12733731;27;20851;-80
2022/06/17 19:34:19;;;;;;;;;;;;;;;;;;12748002;27;19923;-80
2022/06/17 19:40:21;;;;;;;;;;;;;;;;;;12767651;27;19923;-79
2022/06/17 19:46:22;;;;;;;;;;;;;;;;;;12759797;27;20368;-81
2022/06/17 19:52:24;;;;;;;;;;;;;;;;;;12765800;27;19911;-80
2022/06/17 19:58:26;;;;;;;;;;;;;;;;;;12767158;28;19919;-80
2022/06/17 20:04:27;;;;;;;;;;;;;;;;;;12763538;27;19919;-81
2022/06/17 20:10:29;;;;;;;;;;;;;;;;;;12757156;27;19915;-81
2022/06/17 20:16:33;;;;;;;;;;;;;;;;;;12759464;27;20002;-80
2022/06/17 20:22:34;;;;;;;;;;;;;;;;;;12739934;27;19918;-80
2022/06/17 20:28:36;;;;;;;;;;;;;;;;;;12758284;27;19911;-80
2022/06/17 20:34:39;;;;;;;;;;;;;;;;;;12722559;27;19919;-81
2022/06/17 20:40:40;;;;;;;;;;;;;;;;;;12740001;27;19928;-81
2022/06/17 20:53:02;;;;;;;;;;;;;;;;;;12755577;27;20257;-80
2022/06/17 20:59:03;;;;;;;;;;;;;;;;;;12767369;27;19926;-80
2022/06/17 21:05:05;;;;;;;;;;;;;;;;;;12776857;27;19919;-80
2022/06/17 21:11:07;;;;;;;;;;;;;;;;;;12740141;27;19915;-80
2022/06/17 21:17:08;;;;;;;;;;;;;;;;;;12771656;27;19920;-81
2022/06/17 21:23:10;;;;;;;;;;;;;;;;;;12753970;27;19926;-80
2022/06/17 21:29:12;;;;;;;;;;;;;;;;;;12771507;27;19915;-80
2022/06/17 21:35:13;;;;;;;;;;;;;;;;;;12769907;27;19923;-80
2022/06/17 21:41:15;;;;;;;;;;;;;;;;;;12768597;27;19923;-80
2022/06/17 21:47:17;;;;;;;;;;;;;;;;;;12759406;27;19919;-80
2022/06/17 21:53:18;;;;;;;;;;;;;;;;;;12759233;27;19912;-80
2022/06/17 21:59:20;;;;;;;;;;;;;;;;;;12756390;27;19931;-80
2022/06/17 22:05:22;;;;;;;;;;;;;;;;;;12759141;27;20267;-80
2022/06/17 22:17:43;;;;;;;;;;;;;;;;;;12738478;27;19920;-81
2022/06/17 22:23:45;;;;;;;;;;;;;;;;;;12726624;27;19911;-80
2022/06/17 22:29:46;;;;;;;;;;;;;;;;;;12756975;27;19911;-81
2022/06/17 22:35:48;;;;;;;;;;;;;;;;;;12736513;27;19919;-81
2022/06/17 22:41:49;;;;;;;;;;;;;;;;;;12759404;27;19923;-80
2022/06/17 22:47:51;;;;;;;;;;;;;;;;;;12738993;27;19922;-81
2022/06/17 22:53:52;;;;;;;;;;;;;;;;;;12757934;27;19911;-81
2022/06/17 22:59:54;;;;;;;;;;;;;;;;;;12761167;27;19920;-80
2022/06/17 23:05:55;;;;;;;;;;;;;;;;;;12781666;27;19912;-78
2022/06/17 23:11:57;;;;;;;;;;;;;;;;;;12767696;27;19916;-81
2022/06/17 23:24:19;;;;;;;;;;;;;;;;;;12735571;27;19911;-81
2022/06/17 23:30:21;;;;;;;;;;;;;;;;;;12748630;27;20248;-80
2022/06/17 23:36:22;;;;;;;;;;;;;;;;;;12712585;27;19926;-81
2022/06/17 23:42:24;;;;;;;;;;;;;;;;;;12729117;27;19923;-81
2022/06/17 23:48:25;;;;;;;;;;;;;;;;;;12728701;27;20271;-80
2022/06/17 23:54:27;;;;;;;;;;;;;;;;;;12728955;27;19911;-81
